This is the latest recevied weather packets stored in our database for station/object SV2RIM-2. If no packets are shown the sender has not sent any weather packets the latest 10 day(s).
| Time | Temp. | Humidity | Pressure | Rain* | Wind** | Luminosity | Snow |
|---|---|---|---|---|---|---|---|
| 1777479319 | 23.89° C | 47% | 1014.4 hPa | - | - | - | - |
| 1777478719 | 24.44° C | 47% | 1014.4 hPa | - | - | - | - |
| 1777478119 | 26.11° C | 45% | 1014.4 hPa | - | - | - | - |
| 1777477519 | 26.67° C | 45% | 1014.4 hPa | - | - | - | - |
| 1777476919 | 26.67° C | 46% | 1014.4 hPa | - | - | - | - |
| 1777476319 | 26.11° C | 47% | 1014.4 hPa | - | - | - | - |
| 1777475719 | 24.44° C | 52% | 1014.5 hPa | - | - | - | - |
| 1777475119 | 25.56° C | 53% | 1014.6 hPa | - | - | - | - |
| 1777474519 | 27.78° C | 48% | 1014.6 hPa | - | - | - | - |
| 1777473919 | 26.11° C | 53% | 1014.5 hPa | - | - | - | - |
| 1777473319 | 27.78° C | 50% | 1014.6 hPa | - | - | - | - |
| 1777472719 | 26.67° C | 52% | 1014.7 hPa | - | - | - | - |
| 1777472119 | 26.11° C | 56% | 1014.8 hPa | - | - | - | - |
| 1777471519 | 26.67° C | 55% | 1014.9 hPa | - | - | - | - |
| 1777470919 | 26.11° C | 58% | 1015 hPa | - | - | - | - |
| 1777470319 | 27.22° C | 54% | 1015.1 hPa | - | - | - | - |
| 1777469719 | 25.56° C | 56% | 1015.3 hPa | - | - | - | - |
| 1777469119 | 24.44° C | 61% | 1015.3 hPa | - | - | - | - |
| 1777468519 | 25.56° C | 57% | 1015.4 hPa | - | - | - | - |
| 1777467919 | 25° C | 59% | 1015.5 hPa | - | - | - | - |
| 1777467319 | 26.11° C | 57% | 1015.7 hPa | - | - | - | - |
| 1777466719 | 23.33° C | 62% | 1015.7 hPa | - | - | - | - |
| 1777466119 | 24.44° C | 60% | 1015.8 hPa | - | - | - | - |
| 1777465519 | 24.44° C | 59% | 1016 hPa | - | - | - | - |
| 1777464919 | 23.89° C | 60% | 1016 hPa | - | - | - | - |
* Rain since midnight (hover to see other rain measurements)
** Current wind speed in m/s (hover to see current wind gust speed)